createdAt,value
2023-05-13T00:01:38.651Z,5.22
2023-05-13T00:04:07.519Z,4.78
2023-05-13T00:06:37.440Z,4.90
2023-05-13T00:09:06.069Z,4.65
2023-05-13T00:11:35.488Z,5.47
2023-05-13T00:14:04.256Z,4.97
2023-05-13T00:16:32.695Z,5.18
2023-05-13T00:19:01.207Z,7.15
2023-05-13T00:21:29.583Z,5.45
2023-05-13T00:23:59.406Z,5.28
2023-05-13T00:26:27.718Z,5.25
2023-05-13T00:28:56.127Z,5.10
2023-05-13T00:31:24.508Z,4.97
2023-05-13T00:33:52.907Z,5.25
2023-05-13T00:36:21.331Z,5.47
2023-05-13T00:38:49.697Z,3.95
2023-05-13T00:41:19.760Z,5.32
2023-05-13T00:43:48.260Z,4.68
2023-05-13T00:46:17.233Z,5.40
2023-05-13T00:48:45.886Z,5.43
2023-05-13T00:51:14.285Z,5.05
2023-05-13T00:53:44.030Z,32.63
2023-05-13T00:56:12.547Z,6.90
2023-05-13T00:58:42.284Z,5.50
2023-05-13T01:01:22.108Z,5.05
2023-05-13T01:04:02.744Z,5.18
2023-05-13T01:06:41.845Z,5.40
2023-05-13T01:09:18.219Z,4.75
2023-05-13T01:11:50.040Z,4.85
2023-05-13T01:14:26.453Z,5.28
2023-05-13T01:17:02.609Z,5.18
2023-05-13T01:19:43.252Z,4.88
2023-05-13T01:22:13.069Z,4.72
2023-05-13T01:24:41.546Z,4.43
2023-05-13T01:27:10.327Z,4.78
2023-05-13T01:29:40.926Z,5.07
2023-05-13T01:32:12.507Z,4.97
2023-05-13T01:34:41.875Z,10.27
2023-05-13T01:37:10.294Z,6.85
2023-05-13T01:39:40.426Z,5.40
2023-05-13T01:42:09.484Z,5.85
2023-05-13T01:44:37.892Z,4.80
2023-05-13T01:47:07.017Z,4.28
2023-05-13T01:49:35.411Z,4.70
2023-05-13T01:52:04.280Z,4.30
2023-05-13T01:54:32.685Z,4.43
2023-05-13T01:57:02.469Z,4.80
2023-05-13T01:59:30.954Z,5.47
2023-05-13T02:01:59.326Z,5.07
2023-05-13T02:04:28.264Z,5.47
2023-05-13T02:06:56.635Z,5.47
2023-05-13T02:09:24.992Z,5.00
2023-05-13T02:11:53.326Z,5.25
2023-05-13T02:14:23.048Z,4.88
2023-05-13T02:16:51.466Z,4.93
2023-05-13T02:19:19.977Z,4.35
2023-05-13T02:21:48.343Z,4.30
2023-05-13T02:24:18.076Z,5.10
2023-05-13T02:26:46.435Z,4.82
2023-05-13T02:29:15.916Z,4.57
2023-05-13T02:31:45.690Z,5.10
2023-05-13T02:34:14.060Z,4.93
2023-05-13T02:36:42.486Z,5.00
2023-05-13T02:39:10.838Z,5.30
2023-05-13T02:41:39.222Z,5.95
2023-05-13T02:44:07.683Z,5.32
2023-05-13T02:46:36.065Z,4.75
2023-05-13T02:49:05.837Z,5.32
2023-05-13T02:51:34.239Z,5.15
2023-05-13T02:54:02.596Z,5.30
2023-05-13T02:56:30.930Z,5.55
2023-05-13T02:58:59.463Z,5.97
2023-05-13T03:01:27.860Z,5.20
2023-05-13T03:03:56.330Z,4.32
2023-05-13T03:06:26.187Z,5.90
2023-05-13T03:08:55.306Z,4.68
2023-05-13T03:11:23.707Z,5.20
2023-05-13T03:13:52.037Z,5.38
2023-05-13T03:16:20.613Z,5.05
2023-05-13T03:18:49.119Z,5.13
2023-05-13T03:21:17.622Z,5.25
2023-05-13T03:23:47.388Z,5.63
2023-05-13T03:26:16.572Z,5.45
2023-05-13T03:28:44.969Z,5.80
2023-05-13T03:31:13.663Z,5.28
2023-05-13T03:33:42.070Z,5.30
2023-05-13T03:36:10.777Z,5.35
2023-05-13T03:38:39.067Z,5.93
2023-05-13T03:41:08.985Z,4.90
2023-05-13T03:43:37.406Z,5.65
2023-05-13T03:46:05.870Z,5.05
2023-05-13T03:48:34.212Z,5.40
2023-05-13T03:51:03.271Z,5.53
2023-05-13T03:53:31.706Z,4.97
2023-05-13T03:56:00.061Z,4.90
2023-05-13T03:58:29.778Z,5.88
2023-05-13T04:00:58.196Z,5.45
2023-05-13T04:03:26.739Z,5.78
2023-05-13T04:05:55.142Z,4.97
2023-05-13T04:08:23.472Z,5.45
2023-05-13T04:10:51.799Z,5.95
2023-05-13T04:13:20.139Z,4.88
2023-05-13T04:15:49.980Z,4.93
2023-05-13T04:18:18.316Z,5.20
2023-05-13T04:20:46.710Z,5.93
2023-05-13T04:23:15.010Z,6.10
2023-05-13T04:25:43.472Z,5.82
2023-05-13T04:28:11.781Z,5.78
2023-05-13T04:30:40.172Z,6.68
2023-05-13T04:33:09.962Z,7.32
2023-05-13T04:35:38.378Z,5.22
2023-05-13T04:38:06.879Z,5.75
2023-05-13T04:40:35.297Z,6.95
2023-05-13T04:43:03.735Z,6.25
2023-05-13T04:45:32.805Z,5.90
2023-05-13T04:48:01.228Z,6.40
2023-05-13T04:50:31.980Z,6.43
2023-05-13T04:53:00.938Z,7.45
2023-05-13T04:55:29.391Z,6.38
2023-05-13T04:57:58.880Z,6.07
2023-05-13T05:00:27.349Z,6.03
2023-05-13T05:02:56.761Z,6.28
2023-05-13T05:05:25.191Z,6.50
2023-05-13T05:07:55.108Z,6.60
2023-05-13T05:10:23.729Z,5.97
2023-05-13T05:12:52.341Z,6.35
2023-05-13T05:15:21.142Z,6.82
2023-05-13T05:17:49.587Z,6.82
2023-05-13T05:20:18.204Z,6.32
2023-05-13T05:22:46.627Z,5.93
2023-05-13T05:25:16.433Z,5.82
2023-05-13T05:27:44.773Z,6.05
2023-05-13T05:30:15.150Z,6.57
2023-05-13T05:32:43.695Z,6.05
2023-05-13T05:35:12.164Z,7.22
2023-05-13T05:37:40.543Z,6.82
2023-05-13T05:40:10.780Z,6.53
2023-05-13T05:42:40.625Z,6.50
2023-05-13T05:45:10.579Z,6.75
2023-05-13T05:47:39.020Z,5.82
2023-05-13T05:50:08.805Z,6.18
2023-05-13T05:52:37.092Z,6.00
2023-05-13T05:55:07.309Z,6.03
2023-05-13T05:57:35.727Z,6.80
2023-05-13T06:00:07.305Z,5.85
2023-05-13T06:02:36.216Z,6.57
2023-05-13T06:05:04.803Z,6.05
2023-05-13T06:07:33.185Z,5.95
2023-05-13T06:10:01.556Z,6.63
2023-05-13T06:12:29.978Z,6.25
2023-05-13T06:14:58.382Z,6.55
2023-05-13T06:17:28.191Z,6.90
2023-05-13T06:19:56.665Z,6.53
2023-05-13T06:22:25.024Z,6.25
2023-05-13T06:24:53.392Z,6.25
2023-05-13T06:27:21.783Z,6.50
2023-05-13T06:29:50.184Z,7.20
2023-05-13T06:32:18.547Z,6.68
2023-05-13T06:34:48.567Z,7.22
2023-05-13T06:37:16.991Z,7.55
2023-05-13T06:39:45.500Z,6.40
2023-05-13T06:42:14.357Z,7.18
2023-05-13T06:44:42.872Z,7.13
2023-05-13T06:47:14.949Z,7.32
2023-05-13T06:49:43.504Z,7.57
2023-05-13T06:52:13.268Z,6.93
2023-05-13T06:54:41.601Z,6.05
2023-05-13T06:57:09.943Z,6.80
2023-05-13T06:59:38.273Z,7.45
2023-05-13T07:02:09.753Z,6.93
2023-05-13T07:04:38.315Z,6.60
2023-05-13T07:07:06.824Z,5.78
2023-05-13T07:09:36.559Z,7.05
2023-05-13T07:12:05.397Z,7.47
2023-05-13T07:14:33.738Z,7.93
2023-05-13T07:17:02.353Z,7.63
2023-05-13T07:19:31.421Z,7.90
2023-05-13T07:21:59.756Z,6.85
2023-05-13T07:24:28.097Z,7.15
2023-05-13T07:26:57.876Z,6.97
2023-05-13T07:29:27.605Z,8.13
2023-05-13T07:31:56.131Z,6.97
2023-05-13T07:34:24.508Z,6.35
2023-05-13T07:36:52.987Z,7.90
2023-05-13T07:39:21.337Z,7.75
2023-05-13T07:41:50.132Z,7.55
2023-05-13T07:44:19.948Z,7.45
2023-05-13T07:46:48.942Z,7.22
2023-05-13T07:49:17.708Z,8.23
2023-05-13T07:51:46.143Z,8.27
2023-05-13T07:54:14.786Z,7.57
2023-05-13T07:56:44.281Z,6.85
2023-05-13T07:59:12.736Z,8.80
2023-05-13T08:01:44.627Z,8.20
2023-05-13T08:04:13.227Z,7.70
2023-05-13T08:06:41.839Z,8.45
2023-05-13T08:09:12.298Z,8.05
2023-05-13T08:11:40.804Z,10.60
2023-05-13T08:14:09.243Z,9.30
2023-05-13T08:16:37.801Z,10.25
2023-05-13T08:19:07.629Z,9.48
2023-05-13T08:21:36.032Z,10.10
2023-05-13T08:24:04.606Z,10.40
2023-05-13T08:26:32.948Z,9.55
2023-05-13T08:29:01.529Z,9.25
2023-05-13T08:31:30.287Z,9.13
2023-05-13T08:33:58.757Z,8.82
2023-05-13T08:36:28.714Z,8.95
2023-05-13T08:38:57.128Z,8.13
2023-05-13T08:41:25.642Z,7.55
2023-05-13T08:43:55.259Z,7.78
2023-05-13T08:46:26.804Z,8.25
2023-05-13T08:48:57.220Z,8.23
2023-05-13T08:51:27.096Z,7.50
2023-05-13T08:53:57.425Z,8.52
2023-05-13T08:56:28.463Z,6.72
2023-05-13T08:58:57.102Z,8.05
2023-05-13T09:01:27.697Z,8.30
2023-05-13T09:04:02.602Z,7.15
2023-05-13T09:06:32.468Z,6.80
2023-05-13T09:09:00.928Z,9.02
2023-05-13T09:11:30.402Z,6.32
2023-05-13T09:13:59.954Z,7.05
2023-05-13T09:16:32.792Z,7.65
2023-05-13T09:19:04.978Z,7.03
2023-05-13T09:21:36.592Z,7.80
2023-05-13T09:24:13.329Z,7.53
2023-05-13T09:26:43.154Z,7.57
2023-05-13T09:29:23.356Z,8.10
2023-05-13T09:31:54.809Z,20.67
2023-05-13T09:34:31.734Z,8.95
2023-05-13T09:37:04.269Z,10.13
2023-05-13T09:39:35.780Z,7.70
2023-05-13T09:42:05.598Z,8.10
2023-05-13T09:44:35.147Z,14.25
2023-05-13T09:47:03.835Z,15.70
2023-05-13T09:49:33.638Z,18.85
2023-05-13T09:52:03.631Z,18.13
2023-05-13T09:54:37.218Z,9.20
2023-05-13T09:57:06.774Z,10.77
2023-05-13T09:59:35.256Z,8.05
2023-05-13T10:02:07.433Z,8.23
2023-05-13T10:04:36.039Z,8.32
2023-05-13T10:07:06.894Z,7.00
2023-05-13T10:09:38.646Z,7.97
2023-05-13T10:12:11.418Z,7.63
2023-05-13T10:14:41.195Z,7.05
2023-05-13T10:17:10.131Z,7.13
2023-05-13T10:19:39.124Z,6.68
2023-05-13T10:22:09.217Z,7.35
2023-05-13T10:24:40.172Z,8.13
2023-05-13T10:27:09.386Z,7.47
2023-05-13T10:29:40.690Z,6.18
2023-05-13T10:32:11.378Z,7.05
2023-05-13T10:34:41.171Z,6.82
2023-05-13T10:37:34.492Z,6.45
2023-05-13T10:40:40.607Z,6.55
2023-05-13T10:43:19.107Z,7.25
2023-05-13T10:45:49.703Z,6.78
2023-05-13T10:48:19.799Z,6.95
2023-05-13T10:50:57.223Z,7.40
2023-05-13T10:53:32.563Z,7.28
2023-05-13T10:56:01.428Z,7.38
2023-05-13T10:58:36.785Z,6.97
2023-05-13T11:01:16.944Z,7.90
2023-05-13T11:03:54.311Z,7.13
2023-05-13T11:06:24.696Z,7.28
2023-05-13T11:08:56.164Z,8.15
2023-05-13T11:11:33.205Z,7.55
2023-05-13T11:14:18.099Z,8.52
2023-05-13T11:16:54.943Z,7.90
2023-05-13T11:19:27.512Z,8.15
2023-05-13T11:21:58.966Z,9.15
2023-05-13T11:24:28.660Z,8.00
2023-05-13T11:26:59.999Z,8.57
2023-05-13T11:29:34.545Z,8.63
2023-05-13T11:32:05.000Z,7.28
2023-05-13T11:34:35.316Z,8.55
2023-05-13T11:37:11.618Z,7.28
2023-05-13T11:39:42.503Z,7.53
2023-05-13T11:42:12.270Z,6.95
2023-05-13T11:44:47.775Z,8.18
2023-05-13T11:47:16.317Z,8.60
2023-05-13T11:49:46.474Z,7.60
2023-05-13T11:52:16.961Z,6.93
2023-05-13T11:54:49.621Z,7.90
2023-05-13T11:57:26.462Z,7.20
2023-05-13T11:59:58.010Z,7.93
2023-05-13T12:02:28.931Z,7.78
2023-05-13T12:05:00.602Z,7.72
2023-05-13T12:07:29.430Z,7.15
2023-05-13T12:10:01.591Z,7.72
2023-05-13T12:12:32.504Z,7.25
2023-05-13T12:15:05.080Z,7.13
2023-05-13T12:17:34.254Z,9.75
2023-05-13T12:20:12.008Z,7.10
2023-05-13T12:22:57.171Z,6.63
2023-05-13T12:25:45.803Z,6.38
2023-05-13T12:28:19.809Z,6.85
2023-05-13T12:30:54.449Z,6.75
2023-05-13T12:33:24.932Z,6.63
2023-05-13T12:35:55.017Z,6.40
2023-05-13T12:38:25.805Z,6.70
2023-05-13T12:40:56.320Z,7.35
2023-05-13T12:43:24.907Z,7.05
2023-05-13T12:45:56.592Z,7.78
2023-05-13T12:48:26.188Z,5.55
2023-05-13T12:50:54.807Z,6.30
2023-05-13T12:53:23.144Z,6.07
2023-05-13T12:55:51.558Z,6.15
2023-05-13T12:58:21.418Z,6.20
2023-05-13T13:00:49.983Z,6.38
2023-05-13T13:03:18.807Z,6.55
2023-05-13T13:05:48.279Z,5.32
2023-05-13T13:08:16.742Z,7.75
2023-05-13T13:10:45.124Z,5.10
2023-05-13T13:13:13.643Z,6.25
2023-05-13T13:15:43.371Z,6.00
2023-05-13T13:18:11.805Z,8.32
2023-05-13T13:20:40.228Z,6.28
2023-05-13T13:23:09.175Z,5.78
2023-05-13T13:25:37.687Z,6.20
2023-05-13T13:28:06.305Z,6.60
2023-05-13T13:30:34.667Z,6.28
2023-05-13T13:33:04.601Z,6.20
2023-05-13T13:35:33.074Z,6.05
2023-05-13T13:38:01.504Z,6.82
2023-05-13T13:40:29.844Z,6.32
2023-05-13T13:42:58.160Z,6.50
2023-05-13T13:45:26.579Z,6.82
2023-05-13T13:47:55.079Z,7.05
2023-05-13T13:50:25.328Z,7.72
2023-05-13T13:52:54.100Z,6.68
2023-05-13T13:55:23.614Z,6.47
2023-05-13T13:57:52.107Z,6.97
2023-05-13T14:00:20.995Z,6.63
2023-05-13T14:02:49.726Z,6.15
2023-05-13T14:05:18.544Z,5.80
2023-05-13T14:07:49.668Z,6.40
2023-05-13T14:10:18.074Z,7.80
2023-05-13T14:12:46.533Z,10.23
2023-05-13T14:15:15.015Z,6.70
2023-05-13T14:17:43.565Z,6.97
2023-05-13T14:20:12.562Z,7.18
2023-05-13T14:22:40.911Z,6.75
2023-05-13T14:25:11.540Z,6.50
2023-05-13T14:27:39.953Z,7.40
2023-05-13T14:30:09.991Z,7.25
2023-05-13T14:32:38.406Z,8.27
2023-05-13T14:35:08.600Z,8.85
2023-05-13T14:37:36.948Z,7.60
2023-05-13T14:40:07.154Z,8.32
2023-05-13T14:42:37.077Z,18.52
2023-05-13T14:45:06.597Z,21.08
2023-05-13T14:47:35.370Z,9.68
2023-05-13T14:50:03.793Z,9.07
2023-05-13T14:52:32.224Z,9.45
2023-05-13T14:55:00.782Z,9.23
2023-05-13T14:57:29.187Z,8.32
2023-05-13T15:00:00.037Z,8.73
2023-05-13T15:02:28.783Z,8.57
2023-05-13T15:04:57.317Z,8.68
2023-05-13T15:07:25.766Z,8.57
2023-05-13T15:09:54.334Z,8.27
2023-05-13T15:12:23.105Z,8.07
2023-05-13T15:14:54.079Z,8.80
2023-05-13T15:17:23.876Z,8.85
2023-05-13T15:19:52.264Z,9.73
2023-05-13T15:22:20.649Z,10.77
2023-05-13T15:24:49.006Z,9.73
2023-05-13T15:27:17.399Z,9.35
2023-05-13T15:29:45.749Z,9.68
2023-05-13T15:32:14.202Z,10.00
2023-05-13T15:34:44.692Z,8.13
2023-05-13T15:37:13.054Z,9.48
2023-05-13T15:39:47.482Z,9.18
2023-05-13T15:42:15.856Z,9.25
2023-05-13T15:44:45.638Z,8.57
2023-05-13T15:47:14.102Z,9.27
2023-05-13T15:49:43.894Z,9.55
2023-05-13T15:52:12.322Z,7.72
2023-05-13T15:54:40.766Z,8.63
2023-05-13T15:57:09.209Z,8.32
2023-05-13T15:59:37.666Z,9.32
2023-05-13T16:02:06.253Z,8.90
2023-05-13T16:04:34.782Z,8.90
2023-05-13T16:07:07.282Z,8.02
2023-05-13T16:09:35.978Z,8.70
2023-05-13T16:12:04.672Z,7.70
2023-05-13T16:14:33.727Z,9.02
2023-05-13T16:17:02.203Z,9.20
2023-05-13T16:19:30.899Z,9.70
2023-05-13T16:21:59.270Z,11.23
2023-05-13T16:24:29.034Z,8.48
2023-05-13T16:26:57.657Z,9.50
2023-05-13T16:29:26.167Z,9.10
2023-05-13T16:31:54.653Z,9.85
2023-05-13T16:34:23.285Z,8.50
2023-05-13T16:36:51.723Z,10.15
2023-05-13T16:39:20.016Z,9.13
2023-05-13T16:41:49.828Z,10.38
2023-05-13T16:44:18.209Z,8.98
2023-05-13T16:46:46.700Z,9.75
2023-05-13T16:49:15.134Z,10.68
2023-05-13T16:51:43.481Z,9.65
2023-05-13T16:54:11.923Z,10.27
2023-05-13T16:56:40.539Z,10.85
2023-05-13T16:59:11.286Z,10.02
2023-05-13T17:01:39.707Z,9.85
2023-05-13T17:04:08.140Z,9.95
2023-05-13T17:06:36.463Z,9.68
2023-05-13T17:09:05.037Z,12.55
2023-05-13T17:11:33.373Z,10.38
2023-05-13T17:14:01.828Z,11.82
2023-05-13T17:16:31.751Z,10.70
2023-05-13T17:19:00.518Z,10.82
2023-05-13T17:21:28.917Z,11.02
2023-05-13T17:23:57.330Z,11.05
2023-05-13T17:26:26.412Z,10.82
2023-05-13T17:28:55.124Z,10.40
2023-05-13T17:31:25.048Z,10.43
2023-05-13T17:33:54.985Z,10.80
2023-05-13T17:36:23.432Z,10.35
2023-05-13T17:38:52.238Z,10.40
2023-05-13T17:41:20.655Z,10.57
2023-05-13T17:43:49.117Z,10.20
2023-05-13T17:46:17.568Z,11.45
2023-05-13T17:48:46.055Z,10.85
2023-05-13T17:51:15.873Z,10.90
2023-05-13T17:53:44.293Z,10.55
2023-05-13T17:56:12.856Z,11.45
2023-05-13T17:58:41.269Z,10.25
2023-05-13T18:01:09.673Z,11.27
2023-05-13T18:03:38.055Z,11.07
2023-05-13T18:06:06.956Z,10.68
2023-05-13T18:08:36.839Z,10.60
2023-05-13T18:11:05.273Z,10.63
2023-05-13T18:13:35.486Z,10.25
2023-05-13T18:16:04.638Z,11.40
2023-05-13T18:18:33.099Z,11.52
2023-05-13T18:21:01.666Z,11.18
2023-05-13T18:23:30.250Z,10.07
2023-05-13T18:26:00.093Z,10.00
2023-05-13T18:28:28.462Z,11.13
2023-05-13T18:30:56.860Z,9.02
2023-05-13T18:33:25.277Z,9.65
2023-05-13T18:35:54.001Z,9.95
2023-05-13T18:38:22.325Z,10.98
2023-05-13T18:40:50.804Z,11.00
2023-05-13T18:43:20.916Z,11.05
2023-05-13T18:45:49.439Z,9.38
2023-05-13T18:48:17.821Z,9.40
2023-05-13T18:50:46.272Z,9.25
2023-05-13T18:53:14.932Z,11.13
2023-05-13T18:55:43.444Z,9.75
2023-05-13T18:58:11.807Z,9.98
2023-05-13T19:00:41.831Z,11.30
2023-05-13T19:03:10.471Z,9.00
2023-05-13T19:05:38.956Z,9.65
2023-05-13T19:08:08.126Z,9.88
2023-05-13T19:10:39.950Z,10.73
2023-05-13T19:13:08.938Z,9.77
2023-05-13T19:15:37.859Z,10.65
2023-05-13T19:18:07.960Z,9.20
2023-05-13T19:20:36.367Z,9.65
2023-05-13T19:23:05.093Z,9.95
2023-05-13T19:25:33.729Z,9.98
2023-05-13T19:28:03.391Z,10.10
2023-05-13T19:30:32.191Z,10.27
2023-05-13T19:33:00.754Z,11.23
2023-05-13T19:35:31.113Z,10.30
2023-05-13T19:38:00.260Z,10.52
2023-05-13T19:40:28.915Z,9.70
2023-05-13T19:42:57.307Z,9.23
2023-05-13T19:45:25.945Z,10.77
2023-05-13T19:47:54.601Z,11.40
2023-05-13T19:50:23.484Z,9.85
2023-05-13T19:52:54.147Z,9.40
2023-05-13T19:55:22.682Z,10.85
2023-05-13T19:57:51.130Z,11.52
2023-05-13T20:00:20.167Z,10.60
2023-05-13T20:02:48.718Z,9.93
2023-05-13T20:05:17.390Z,10.05
2023-05-13T20:07:45.873Z,11.77
2023-05-13T20:10:15.831Z,12.13
2023-05-13T20:12:45.837Z,11.10
2023-05-13T20:15:15.334Z,9.88
2023-05-13T20:17:45.287Z,10.48
2023-05-13T20:20:14.106Z,10.57
2023-05-13T20:22:42.836Z,11.45
2023-05-13T20:25:12.033Z,11.38
2023-05-13T20:27:41.849Z,10.77
2023-05-13T20:30:12.493Z,10.35
2023-05-13T20:32:41.217Z,11.35
2023-05-13T20:35:11.180Z,9.75
2023-05-13T20:37:39.855Z,11.68
2023-05-13T20:40:10.904Z,10.95
2023-05-13T20:42:39.544Z,10.18
2023-05-13T20:45:10.722Z,10.73
2023-05-13T20:47:39.114Z,10.50
2023-05-13T20:50:09.198Z,10.50
2023-05-13T20:52:37.668Z,10.25
2023-05-13T20:55:07.727Z,10.52
2023-05-13T20:57:36.163Z,10.57
2023-05-13T21:00:05.414Z,10.93
2023-05-13T21:02:35.242Z,10.40
2023-05-13T21:05:04.221Z,11.02
2023-05-13T21:07:32.955Z,10.75
2023-05-13T21:10:01.535Z,11.18
2023-05-13T21:12:30.170Z,15.57
2023-05-13T21:14:59.173Z,11.25
2023-05-13T21:17:27.798Z,11.63
2023-05-13T21:19:57.652Z,9.95
2023-05-13T21:22:26.076Z,10.43
2023-05-13T21:24:54.531Z,14.45
2023-05-13T21:27:22.834Z,10.50
2023-05-13T21:29:52.610Z,10.27
2023-05-13T21:32:20.918Z,9.70
2023-05-13T21:34:49.286Z,9.52
2023-05-13T21:37:19.070Z,10.65
2023-05-13T21:39:47.441Z,10.05
2023-05-13T21:42:15.929Z,8.88
2023-05-13T21:44:44.266Z,10.57
2023-05-13T21:47:12.669Z,9.07
2023-05-13T21:49:41.091Z,9.50
2023-05-13T21:52:09.505Z,9.48
2023-05-13T21:54:39.250Z,9.10
2023-05-13T21:57:08.112Z,10.82
2023-05-13T21:59:36.990Z,10.38
2023-05-13T22:02:05.478Z,10.48
2023-05-13T22:04:33.931Z,9.50
2023-05-13T22:07:03.383Z,8.77
2023-05-13T22:09:31.767Z,8.70
2023-05-13T22:12:01.606Z,9.73
2023-05-13T22:14:30.248Z,10.23
2023-05-13T22:17:09.057Z,10.63
2023-05-13T22:19:38.015Z,9.48
2023-05-13T22:22:06.769Z,9.75
2023-05-13T22:24:35.035Z,10.13
2023-05-13T22:27:05.223Z,11.25
2023-05-13T22:29:33.846Z,9.75
2023-05-13T22:32:02.711Z,10.73
2023-05-13T22:34:31.134Z,9.60
2023-05-13T22:36:59.567Z,10.52
2023-05-13T22:39:28.109Z,10.27
2023-05-13T22:41:56.513Z,9.60
2023-05-13T22:44:26.225Z,9.65
2023-05-13T22:46:54.706Z,9.70
2023-05-13T22:49:23.182Z,9.05
2023-05-13T22:51:52.004Z,9.52
2023-05-13T22:54:20.384Z,9.52
2023-05-13T22:56:48.731Z,9.68
2023-05-13T22:59:17.094Z,9.30
2023-05-13T23:01:46.890Z,8.85
2023-05-13T23:04:15.341Z,9.18
2023-05-13T23:06:43.742Z,10.90
2023-05-13T23:09:12.148Z,13.25
2023-05-13T23:11:41.050Z,13.25
2023-05-13T23:14:09.995Z,9.90
2023-05-13T23:16:38.489Z,9.55
2023-05-13T23:19:09.698Z,10.23
2023-05-13T23:21:38.120Z,10.05
2023-05-13T23:24:06.749Z,9.43
2023-05-13T23:26:35.057Z,9.50
2023-05-13T23:29:03.500Z,9.20
2023-05-13T23:31:31.958Z,8.77
2023-05-13T23:34:00.443Z,8.30
2023-05-13T23:36:30.231Z,8.82
2023-05-13T23:38:58.560Z,8.77
2023-05-13T23:41:27.061Z,8.77
2023-05-13T23:43:55.425Z,7.93
2023-05-13T23:46:23.976Z,9.40
2023-05-13T23:48:52.404Z,8.35
2023-05-13T23:51:20.890Z,8.57
2023-05-13T23:53:50.825Z,7.13
2023-05-13T23:56:19.171Z,11.50
2023-05-13T23:58:47.491Z,8.55
